RYR1182 LSZH-EPKK
Flight info
| Callsign | RYR1182 |
|---|---|
| Flight time | 1h 27m |
| Altitude | 31000 |
| Route | DEGES Z2 XEBIX N871 BADVI L725 INPUL DCT LOKVU DCT PADKA |
| Aircraft | B38M/M-SDE1FGHILORVWXY/HB1 |
Departure
| Time | 2026-04-26 11:52 |
|---|---|
| Airport | Zürich Airport (LSZH) |
Arrival
| Time | 2026-04-26 13:20 |
|---|---|
| Airport | Kraków John Paul II International Airport (EPKK) |
| Time | Latitude | Longitude | Altitude | Speed | Heading |
|---|---|---|---|---|---|
| 2026-04-26 10:52 | 47.45566 | 8.55924 | 1399 ft | 0 kts | 6° |
| 2026-04-26 11:33 | 47.45564 | 8.55924 | 1399 ft | 2 kts | 6° |
| 2026-04-26 11:33 | 47.45538 | 8.55919 | 1389 ft | 4 kts | 6° |
| 2026-04-26 11:34 | 47.45515 | 8.55916 | 1407 ft | 4 kts | 351° |
| 2026-04-26 11:34 | 47.45497 | 8.55933 | 1406 ft | 4 kts | 290° |
| 2026-04-26 11:34 | 47.45493 | 8.55963 | 1405 ft | 1 kts | 276° |
| 2026-04-26 11:34 | 47.45492 | 8.55968 | 1405 ft | 0 kts | 276° |
| 2026-04-26 11:39 | 47.45495 | 8.55933 | 1403 ft | 8 kts | 276° |
| 2026-04-26 11:39 | 47.45502 | 8.55839 | 1402 ft | 10 kts | 276° |
| 2026-04-26 11:39 | 47.45509 | 8.55723 | 1405 ft | 12 kts | 276° |
| 2026-04-26 11:40 | 47.45519 | 8.55591 | 1407 ft | 14 kts | 276° |
| 2026-04-26 11:40 | 47.45529 | 8.55447 | 1406 ft | 14 kts | 276° |
| 2026-04-26 11:40 | 47.45539 | 8.55310 | 1399 ft | 8 kts | 275° |
| 2026-04-26 11:40 | 47.45576 | 8.55249 | 1403 ft | 9 kts | 333° |
| 2026-04-26 11:41 | 47.45642 | 8.55203 | 1404 ft | 12 kts | 333° |
| 2026-04-26 11:42 | 47.46252 | 8.54780 | 1399 ft | 18 kts | 335° |
| 2026-04-26 11:43 | 47.46377 | 8.54693 | 1400 ft | 21 kts | 334° |
| 2026-04-26 11:43 | 47.46463 | 8.54635 | 1401 ft | 0 kts | 334° |
| 2026-04-26 11:46 | 47.46467 | 8.54632 | 1401 ft | 2 kts | 334° |
| 2026-04-26 11:46 | 47.46493 | 8.54613 | 1401 ft | 6 kts | 334° |
| 2026-04-26 11:46 | 47.46538 | 8.54582 | 1398 ft | 9 kts | 335° |
| 2026-04-26 11:46 | 47.46611 | 8.54533 | 1401 ft | 13 kts | 335° |
| 2026-04-26 11:47 | 47.46696 | 8.54474 | 1398 ft | 14 kts | 335° |
| 2026-04-26 11:47 | 47.46793 | 8.54418 | 1395 ft | 16 kts | 341° |
| 2026-04-26 11:47 | 47.46900 | 8.54348 | 1403 ft | 16 kts | 335° |
| 2026-04-26 11:47 | 47.47001 | 8.54279 | 1408 ft | 16 kts | 335° |
| 2026-04-26 11:48 | 47.47106 | 8.54207 | 1408 ft | 17 kts | 335° |
| 2026-04-26 11:48 | 47.47212 | 8.54134 | 1407 ft | 18 kts | 335° |
| 2026-04-26 11:48 | 47.47333 | 8.54051 | 1409 ft | 21 kts | 335° |
| 2026-04-26 11:48 | 47.47464 | 8.53961 | 1405 ft | 17 kts | 334° |
| 2026-04-26 11:49 | 47.47550 | 8.53900 | 1398 ft | 9 kts | 334° |
| 2026-04-26 11:49 | 47.47600 | 8.53844 | 1403 ft | 9 kts | 301° |
| 2026-04-26 11:49 | 47.47610 | 8.53757 | 1401 ft | 9 kts | 258° |
| 2026-04-26 11:49 | 47.47588 | 8.53682 | 1404 ft | 6 kts | 245° |
| 2026-04-26 11:50 | 47.47568 | 8.53620 | 1404 ft | 6 kts | 239° |
| 2026-04-26 11:50 | 47.47536 | 8.53618 | 1401 ft | 6 kts | 156° |
| 2026-04-26 11:50 | 47.47533 | 8.53620 | 1403 ft | 0 kts | 155° |
| 2026-04-26 11:51 | 47.47492 | 8.53648 | 1402 ft | 27 kts | 155° |
| 2026-04-26 11:52 | 47.47078 | 8.53934 | 1402 ft | 101 kts | 155° |
| 2026-04-26 11:52 | 47.46558 | 8.54294 | 1400 ft | 143 kts | 154° |
| 2026-04-26 11:52 | 47.45196 | 8.55238 | 1769 ft | 180 kts | 151° |
| 2026-04-26 11:52 | 47.43989 | 8.56073 | 2351 ft | 194 kts | 150° |
| 2026-04-26 11:53 | 47.42768 | 8.56988 | 3162 ft | 196 kts | 145° |
| 2026-04-26 11:53 | 47.41779 | 8.58454 | 3394 ft | 207 kts | 111° |
| 2026-04-26 11:53 | 47.41674 | 8.60486 | 3518 ft | 202 kts | 68° |
| 2026-04-26 11:54 | 47.43792 | 8.63056 | 3738 ft | 208 kts | 25° |
| 2026-04-26 11:54 | 47.45013 | 8.64205 | 3810 ft | 208 kts | 44° |
| 2026-04-26 11:54 | 47.45961 | 8.65898 | 3919 ft | 223 kts | 60° |
| 2026-04-26 11:54 | 47.46283 | 8.68143 | 3909 ft | 227 kts | 89° |
| 2026-04-26 11:55 | 47.46334 | 8.70507 | 4089 ft | 233 kts | 85° |
| 2026-04-26 11:55 | 47.46412 | 8.72904 | 4191 ft | 235 kts | 86° |
| 2026-04-26 11:55 | 47.46484 | 8.75320 | 4192 ft | 236 kts | 86° |
| 2026-04-26 11:55 | 47.46566 | 8.77820 | 4329 ft | 251 kts | 86° |
| 2026-04-26 11:56 | 47.46659 | 8.80432 | 4341 ft | 255 kts | 86° |
| 2026-04-26 11:56 | 47.46622 | 8.83071 | 4433 ft | 259 kts | 99° |
| 2026-04-26 11:56 | 47.46231 | 8.85662 | 4659 ft | 260 kts | 101° |
| 2026-04-26 11:56 | 47.45847 | 8.88288 | 4814 ft | 262 kts | 101° |
| 2026-04-26 11:57 | 47.45465 | 8.90932 | 4936 ft | 264 kts | 101° |
| 2026-04-26 11:57 | 47.45079 | 8.93587 | 4987 ft | 265 kts | 101° |
| 2026-04-26 11:57 | 47.44702 | 8.96236 | 4865 ft | 261 kts | 101° |
| 2026-04-26 11:57 | 47.44329 | 8.98865 | 4963 ft | 262 kts | 101° |
| 2026-04-26 11:58 | 47.43966 | 9.01508 | 4940 ft | 262 kts | 99° |
| 2026-04-26 11:58 | 47.43588 | 9.04139 | 4969 ft | 262 kts | 101° |
| 2026-04-26 11:58 | 47.43200 | 9.06776 | 5079 ft | 264 kts | 101° |
| 2026-04-26 11:58 | 47.42818 | 9.09421 | 6003 ft | 264 kts | 102° |
| 2026-04-26 11:59 | 47.42434 | 9.12082 | 6750 ft | 272 kts | 103° |
| 2026-04-26 11:59 | 47.42031 | 9.14827 | 7595 ft | 276 kts | 102° |
| 2026-04-26 11:59 | 47.41625 | 9.17630 | 7909 ft | 280 kts | 102° |
| 2026-04-26 11:59 | 47.41381 | 9.20472 | 7990 ft | 280 kts | 85° |
| 2026-04-26 12:00 | 47.41760 | 9.23286 | 8146 ft | 281 kts | 78° |
| 2026-04-26 12:00 | 47.42176 | 9.26125 | 8302 ft | 285 kts | 78° |
| 2026-04-26 12:00 | 47.42606 | 9.28974 | 9142 ft | 283 kts | 78° |
| 2026-04-26 12:00 | 47.43035 | 9.31845 | 9930 ft | 290 kts | 78° |
| 2026-04-26 12:01 | 47.43330 | 9.33817 | 10426 ft | 293 kts | 77° |
| 2026-04-26 12:01 | 47.43784 | 9.36839 | 10861 ft | 311 kts | 77° |
| 2026-04-26 12:01 | 47.44266 | 9.40040 | 11347 ft | 326 kts | 77° |
| 2026-04-26 12:01 | 47.44757 | 9.43302 | 12051 ft | 331 kts | 77° |
| 2026-04-26 12:02 | 47.45309 | 9.46629 | 12824 ft | 335 kts | 72° |
| 2026-04-26 12:02 | 47.45867 | 9.50027 | 13658 ft | 340 kts | 79° |
| 2026-04-26 12:02 | 47.46333 | 9.53454 | 14286 ft | 349 kts | 78° |
| 2026-04-26 12:02 | 47.46869 | 9.56967 | 14992 ft | 352 kts | 77° |
| 2026-04-26 12:03 | 47.47210 | 9.60544 | 15857 ft | 354 kts | 91° |
| 2026-04-26 12:03 | 47.47035 | 9.64194 | 16602 ft | 359 kts | 95° |
| 2026-04-26 12:03 | 47.46845 | 9.67897 | 17300 ft | 363 kts | 95° |
| 2026-04-26 12:03 | 47.46648 | 9.71625 | 18101 ft | 365 kts | 95° |
| 2026-04-26 12:04 | 47.46443 | 9.75388 | 18758 ft | 370 kts | 95° |
| 2026-04-26 12:04 | 47.46232 | 9.79211 | 19308 ft | 376 kts | 97° |
| 2026-04-26 12:04 | 47.46016 | 9.83064 | 19952 ft | 378 kts | 95° |
| 2026-04-26 12:04 | 47.45801 | 9.86950 | 20541 ft | 382 kts | 95° |
| 2026-04-26 12:05 | 47.45580 | 9.90887 | 21086 ft | 387 kts | 95° |
| 2026-04-26 12:05 | 47.45355 | 9.94861 | 21728 ft | 389 kts | 95° |
| 2026-04-26 12:05 | 47.45127 | 9.98867 | 22290 ft | 394 kts | 95° |
| 2026-04-26 12:05 | 47.44896 | 10.02915 | 22855 ft | 397 kts | 95° |
| 2026-04-26 12:06 | 47.44661 | 10.07003 | 23376 ft | 402 kts | 95° |
| 2026-04-26 12:06 | 47.44421 | 10.11135 | 23899 ft | 406 kts | 95° |
| 2026-04-26 12:06 | 47.44178 | 10.15304 | 24341 ft | 409 kts | 95° |
| 2026-04-26 12:06 | 47.43827 | 10.19488 | 24790 ft | 411 kts | 103° |
| 2026-04-26 12:07 | 47.43232 | 10.23630 | 25224 ft | 414 kts | 102° |
| 2026-04-26 12:07 | 47.42665 | 10.27819 | 25655 ft | 418 kts | 102° |
| 2026-04-26 12:07 | 47.42108 | 10.32046 | 26115 ft | 420 kts | 102° |
| 2026-04-26 12:07 | 47.41553 | 10.36297 | 26546 ft | 424 kts | 101° |
| 2026-04-26 12:08 | 47.40995 | 10.40585 | 26960 ft | 426 kts | 102° |
| 2026-04-26 12:08 | 47.40478 | 10.44899 | 27360 ft | 429 kts | 95° |
| 2026-04-26 12:08 | 47.40607 | 10.49301 | 27754 ft | 430 kts | 77° |
| 2026-04-26 12:08 | 47.41452 | 10.53443 | 28173 ft | 431 kts | 70° |
| 2026-04-26 12:09 | 47.42435 | 10.57660 | 28446 ft | 437 kts | 70° |
| 2026-04-26 12:09 | 47.43443 | 10.61894 | 28898 ft | 438 kts | 69° |
| 2026-04-26 12:09 | 47.44471 | 10.66143 | 29276 ft | 441 kts | 69° |
| 2026-04-26 12:09 | 47.45513 | 10.70421 | 29672 ft | 443 kts | 69° |
| 2026-04-26 12:10 | 47.46558 | 10.74709 | 30173 ft | 443 kts | 69° |
| 2026-04-26 12:10 | 47.47598 | 10.78991 | 30619 ft | 442 kts | 69° |
| 2026-04-26 12:10 | 47.48635 | 10.83268 | 31029 ft | 442 kts | 69° |
| 2026-04-26 12:10 | 47.49672 | 10.87552 | 31232 ft | 444 kts | 69° |
| 2026-04-26 12:11 | 47.50708 | 10.91840 | 31204 ft | 441 kts | 69° |
| 2026-04-26 12:11 | 47.52756 | 11.00339 | 31200 ft | 438 kts | 69° |
| 2026-04-26 12:12 | 47.54796 | 11.08831 | 31190 ft | 438 kts | 69° |
| 2026-04-26 12:12 | 47.56834 | 11.17332 | 31196 ft | 438 kts | 69° |
| 2026-04-26 12:13 | 47.58864 | 11.25835 | 31185 ft | 438 kts | 69° |
| 2026-04-26 12:13 | 47.60889 | 11.34348 | 31188 ft | 438 kts | 69° |
| 2026-04-26 12:14 | 47.62794 | 11.42907 | 31194 ft | 436 kts | 72° |
| 2026-04-26 12:14 | 47.64577 | 11.51501 | 31190 ft | 436 kts | 71° |
| 2026-04-26 12:15 | 47.66350 | 11.60107 | 31195 ft | 436 kts | 72° |
| 2026-04-26 12:15 | 47.68104 | 11.68730 | 31188 ft | 436 kts | 72° |
| 2026-04-26 12:16 | 47.69854 | 11.77360 | 31194 ft | 437 kts | 72° |
| 2026-04-26 12:16 | 47.71504 | 11.86039 | 31197 ft | 436 kts | 72° |
| 2026-04-26 12:17 | 47.73102 | 11.94630 | 31190 ft | 435 kts | 77° |
| 2026-04-26 12:17 | 47.74307 | 12.03436 | 31194 ft | 435 kts | 76° |
| 2026-04-26 12:18 | 47.75564 | 12.12228 | 31207 ft | 435 kts | 76° |
| 2026-04-26 12:18 | 47.76824 | 12.21026 | 31187 ft | 435 kts | 76° |
| 2026-04-26 12:19 | 47.78044 | 12.29838 | 31208 ft | 436 kts | 77° |
| 2026-04-26 12:19 | 47.79256 | 12.38681 | 31199 ft | 437 kts | 77° |
| 2026-04-26 12:20 | 47.80464 | 12.47534 | 31208 ft | 437 kts | 77° |
| 2026-04-26 12:20 | 47.81656 | 12.56328 | 31207 ft | 437 kts | 77° |
| 2026-04-26 12:21 | 47.82840 | 12.65190 | 31206 ft | 437 kts | 77° |
| 2026-04-26 12:21 | 47.84122 | 12.74021 | 31193 ft | 434 kts | 67° |
| 2026-04-26 12:22 | 47.86833 | 12.81969 | 31181 ft | 431 kts | 60° |
| 2026-04-26 12:22 | 47.89594 | 12.89887 | 31210 ft | 431 kts | 60° |
| 2026-04-26 12:23 | 47.92375 | 12.97793 | 31223 ft | 431 kts | 60° |
| 2026-04-26 12:23 | 47.95160 | 13.05727 | 31213 ft | 432 kts | 60° |
| 2026-04-26 12:24 | 47.97940 | 13.13669 | 31223 ft | 432 kts | 60° |
| 2026-04-26 12:24 | 48.00717 | 13.21626 | 31217 ft | 432 kts | 60° |
| 2026-04-26 12:25 | 48.04870 | 13.33572 | 31225 ft | 432 kts | 60° |
| 2026-04-26 12:25 | 48.07629 | 13.41536 | 31219 ft | 432 kts | 60° |
| 2026-04-26 12:26 | 48.10383 | 13.49513 | 31214 ft | 432 kts | 60° |
| 2026-04-26 12:26 | 48.13131 | 13.57499 | 31219 ft | 432 kts | 60° |
| 2026-04-26 12:27 | 48.15875 | 13.65494 | 31211 ft | 432 kts | 60° |
| 2026-04-26 12:27 | 48.18614 | 13.73500 | 31215 ft | 432 kts | 60° |
| 2026-04-26 12:28 | 48.21346 | 13.81512 | 31213 ft | 431 kts | 60° |
| 2026-04-26 12:28 | 48.24070 | 13.89526 | 31221 ft | 432 kts | 60° |
| 2026-04-26 12:29 | 48.26800 | 13.97581 | 31208 ft | 433 kts | 60° |
| 2026-04-26 12:30 | 48.30868 | 14.09630 | 31210 ft | 433 kts | 61° |
| 2026-04-26 12:30 | 48.33587 | 14.17716 | 31215 ft | 433 kts | 61° |
| 2026-04-26 12:31 | 48.37654 | 14.29858 | 31208 ft | 433 kts | 61° |
| 2026-04-26 12:31 | 48.40355 | 14.37954 | 31225 ft | 433 kts | 61° |
| 2026-04-26 12:32 | 48.43058 | 14.46082 | 31212 ft | 434 kts | 61° |
| 2026-04-26 12:33 | 48.47105 | 14.58300 | 31218 ft | 434 kts | 61° |
| 2026-04-26 12:33 | 48.49796 | 14.66454 | 31227 ft | 434 kts | 61° |
| 2026-04-26 12:34 | 48.52482 | 14.74620 | 31221 ft | 435 kts | 61° |
| 2026-04-26 12:34 | 48.55161 | 14.82794 | 31220 ft | 434 kts | 61° |
| 2026-04-26 12:35 | 48.57837 | 14.90983 | 31236 ft | 436 kts | 61° |
| 2026-04-26 12:35 | 48.60513 | 14.99202 | 31227 ft | 436 kts | 61° |
| 2026-04-26 12:36 | 48.63187 | 15.07436 | 31231 ft | 436 kts | 61° |
| 2026-04-26 12:36 | 48.65853 | 15.15676 | 31231 ft | 436 kts | 61° |
| 2026-04-26 12:37 | 48.68514 | 15.23925 | 31228 ft | 436 kts | 61° |
| 2026-04-26 12:37 | 48.71169 | 15.32183 | 31230 ft | 436 kts | 61° |
| 2026-04-26 12:38 | 48.73823 | 15.40467 | 31232 ft | 438 kts | 61° |
| 2026-04-26 12:38 | 48.76477 | 15.48775 | 31226 ft | 438 kts | 61° |
| 2026-04-26 12:39 | 48.79128 | 15.57100 | 31223 ft | 438 kts | 61° |
| 2026-04-26 12:39 | 48.81773 | 15.65428 | 31224 ft | 438 kts | 61° |
| 2026-04-26 12:40 | 48.84413 | 15.73768 | 31229 ft | 438 kts | 61° |
| 2026-04-26 12:40 | 48.87049 | 15.82116 | 31233 ft | 438 kts | 60° |
| 2026-04-26 12:41 | 48.90333 | 15.89813 | 31224 ft | 435 kts | 51° |
| 2026-04-26 12:41 | 48.93755 | 15.97413 | 31230 ft | 436 kts | 51° |
| 2026-04-26 12:42 | 48.97175 | 16.05018 | 31234 ft | 435 kts | 51° |
| 2026-04-26 12:42 | 49.00585 | 16.12621 | 31238 ft | 435 kts | 51° |
| 2026-04-26 12:43 | 49.03993 | 16.20241 | 31236 ft | 435 kts | 51° |
| 2026-04-26 12:43 | 49.07398 | 16.27876 | 31238 ft | 436 kts | 51° |
| 2026-04-26 12:44 | 49.10800 | 16.35528 | 31235 ft | 436 kts | 51° |
| 2026-04-26 12:44 | 49.14177 | 16.43141 | 31236 ft | 436 kts | 51° |
| 2026-04-26 12:45 | 49.17570 | 16.50816 | 31237 ft | 436 kts | 51° |
| 2026-04-26 12:45 | 49.20957 | 16.58498 | 31246 ft | 436 kts | 51° |
| 2026-04-26 12:46 | 49.24342 | 16.66197 | 31238 ft | 436 kts | 50° |
| 2026-04-26 12:46 | 49.27721 | 16.73906 | 31226 ft | 436 kts | 50° |
| 2026-04-26 12:47 | 49.30523 | 16.80315 | 31230 ft | 436 kts | 50° |
| 2026-04-26 12:47 | 49.33890 | 16.88037 | 31222 ft | 436 kts | 51° |
| 2026-04-26 12:48 | 49.37237 | 16.95736 | 31119 ft | 426 kts | 50° |
| 2026-04-26 12:48 | 49.38862 | 16.99481 | 30862 ft | 418 kts | 50° |
| 2026-04-26 12:48 | 49.40459 | 17.03168 | 30620 ft | 411 kts | 50° |
| 2026-04-26 12:48 | 49.42027 | 17.06790 | 30361 ft | 405 kts | 50° |
| 2026-04-26 12:49 | 49.43582 | 17.10389 | 30072 ft | 404 kts | 50° |
| 2026-04-26 12:49 | 49.45129 | 17.13975 | 29773 ft | 402 kts | 49° |
| 2026-04-26 12:49 | 49.46668 | 17.17547 | 29480 ft | 400 kts | 49° |
| 2026-04-26 12:49 | 49.48198 | 17.21102 | 29187 ft | 397 kts | 49° |
| 2026-04-26 12:50 | 49.49715 | 17.24633 | 28900 ft | 395 kts | 49° |
| 2026-04-26 12:50 | 49.51223 | 17.28146 | 28632 ft | 392 kts | 49° |
| 2026-04-26 12:50 | 49.52718 | 17.31634 | 28350 ft | 389 kts | 49° |
| 2026-04-26 12:50 | 49.54202 | 17.35101 | 28074 ft | 387 kts | 49° |
| 2026-04-26 12:51 | 49.55678 | 17.38553 | 27797 ft | 385 kts | 49° |
| 2026-04-26 12:51 | 49.57141 | 17.41982 | 27559 ft | 382 kts | 48° |
| 2026-04-26 12:51 | 49.58594 | 17.45387 | 27288 ft | 379 kts | 48° |
| 2026-04-26 12:51 | 49.60035 | 17.48773 | 27016 ft | 377 kts | 48° |
| 2026-04-26 12:52 | 49.61468 | 17.52141 | 26762 ft | 375 kts | 48° |
| 2026-04-26 12:52 | 49.62893 | 17.55495 | 26501 ft | 373 kts | 48° |
| 2026-04-26 12:52 | 49.64307 | 17.58830 | 26243 ft | 371 kts | 48° |
| 2026-04-26 12:52 | 49.65695 | 17.62105 | 25991 ft | 369 kts | 48° |
| 2026-04-26 12:53 | 49.67093 | 17.65409 | 25733 ft | 367 kts | 48° |
| 2026-04-26 12:53 | 49.68483 | 17.68696 | 25489 ft | 365 kts | 47° |
| 2026-04-26 12:53 | 49.69864 | 17.71967 | 25248 ft | 363 kts | 47° |
| 2026-04-26 12:53 | 49.71236 | 17.75223 | 25006 ft | 361 kts | 47° |
| 2026-04-26 12:54 | 49.72602 | 17.78468 | 24761 ft | 359 kts | 47° |
| 2026-04-26 12:54 | 49.73959 | 17.81695 | 24518 ft | 357 kts | 47° |
| 2026-04-26 12:54 | 49.75309 | 17.84906 | 24288 ft | 355 kts | 47° |
| 2026-04-26 12:54 | 49.76652 | 17.88107 | 24047 ft | 354 kts | 47° |
| 2026-04-26 12:55 | 49.77986 | 17.91290 | 23820 ft | 352 kts | 47° |
| 2026-04-26 12:55 | 49.79313 | 17.94462 | 23543 ft | 350 kts | 47° |
| 2026-04-26 12:55 | 49.80631 | 17.97615 | 23267 ft | 348 kts | 47° |
| 2026-04-26 12:55 | 49.81942 | 18.00756 | 22995 ft | 347 kts | 48° |
| 2026-04-26 12:56 | 49.83244 | 18.03881 | 22706 ft | 344 kts | 48° |
| 2026-04-26 12:56 | 49.84540 | 18.06992 | 22446 ft | 343 kts | 48° |
| 2026-04-26 12:56 | 49.85831 | 18.10088 | 22177 ft | 341 kts | 48° |
| 2026-04-26 12:56 | 49.87112 | 18.13169 | 21914 ft | 340 kts | 48° |
| 2026-04-26 12:57 | 49.88388 | 18.16240 | 21654 ft | 338 kts | 48° |
| 2026-04-26 12:57 | 49.89655 | 18.19294 | 21419 ft | 336 kts | 47° |
| 2026-04-26 12:57 | 49.90916 | 18.22337 | 21164 ft | 334 kts | 47° |
| 2026-04-26 12:58 | 49.93051 | 18.28773 | 20633 ft | 350 kts | 71° |
| 2026-04-26 12:58 | 49.93176 | 18.32611 | 20376 ft | 362 kts | 85° |
| 2026-04-26 12:58 | 49.93089 | 18.36515 | 20101 ft | 361 kts | 84° |
| 2026-04-26 12:58 | 49.93001 | 18.40409 | 19832 ft | 360 kts | 84° |
| 2026-04-26 12:59 | 49.92899 | 18.44288 | 19566 ft | 359 kts | 85° |
| 2026-04-26 12:59 | 49.92788 | 18.48148 | 19322 ft | 358 kts | 84° |
| 2026-04-26 12:59 | 49.92672 | 18.51998 | 19063 ft | 357 kts | 84° |
| 2026-04-26 12:59 | 49.92553 | 18.55850 | 18800 ft | 356 kts | 84° |
| 2026-04-26 13:00 | 49.92432 | 18.59676 | 18537 ft | 354 kts | 84° |
| 2026-04-26 13:00 | 49.92310 | 18.63486 | 18241 ft | 353 kts | 84° |
| 2026-04-26 13:00 | 49.92187 | 18.67277 | 17928 ft | 351 kts | 84° |
| 2026-04-26 13:00 | 49.92064 | 18.71052 | 17636 ft | 349 kts | 84° |
| 2026-04-26 13:01 | 49.91939 | 18.74804 | 17347 ft | 348 kts | 85° |
| 2026-04-26 13:01 | 49.91813 | 18.78492 | 17069 ft | 347 kts | 86° |
| 2026-04-26 13:01 | 49.91609 | 18.82214 | 16781 ft | 345 kts | 87° |
| 2026-04-26 13:01 | 49.91403 | 18.85917 | 16495 ft | 344 kts | 87° |
| 2026-04-26 13:02 | 49.91202 | 18.89603 | 16216 ft | 342 kts | 87° |
| 2026-04-26 13:02 | 49.91001 | 18.93279 | 15939 ft | 341 kts | 87° |
| 2026-04-26 13:02 | 49.90798 | 18.96984 | 15683 ft | 340 kts | 86° |
| 2026-04-26 13:02 | 49.90598 | 19.00627 | 15412 ft | 339 kts | 86° |
| 2026-04-26 13:03 | 49.90395 | 19.04217 | 15137 ft | 338 kts | 86° |
| 2026-04-26 13:03 | 49.90188 | 19.07836 | 14868 ft | 336 kts | 86° |
| 2026-04-26 13:03 | 49.89981 | 19.11448 | 14608 ft | 335 kts | 87° |
| 2026-04-26 13:03 | 49.89773 | 19.15040 | 14342 ft | 334 kts | 87° |
| 2026-04-26 13:04 | 49.89566 | 19.18611 | 14086 ft | 332 kts | 87° |
| 2026-04-26 13:04 | 49.89358 | 19.22168 | 13800 ft | 330 kts | 87° |
| 2026-04-26 13:04 | 49.89156 | 19.25700 | 13505 ft | 327 kts | 85° |
| 2026-04-26 13:04 | 49.89395 | 19.29073 | 13173 ft | 305 kts | 61° |
| 2026-04-26 13:05 | 49.90191 | 19.32059 | 12924 ft | 298 kts | 58° |
| 2026-04-26 13:05 | 49.90996 | 19.35012 | 12654 ft | 296 kts | 58° |
| 2026-04-26 13:05 | 49.91804 | 19.37944 | 12391 ft | 295 kts | 58° |
| 2026-04-26 13:05 | 49.92614 | 19.40860 | 12145 ft | 294 kts | 57° |
| 2026-04-26 13:06 | 49.93424 | 19.43769 | 11916 ft | 293 kts | 57° |
| 2026-04-26 13:06 | 49.94229 | 19.46660 | 11675 ft | 291 kts | 57° |
| 2026-04-26 13:06 | 49.94952 | 19.49598 | 11426 ft | 296 kts | 66° |
| 2026-04-26 13:06 | 49.95374 | 19.52733 | 11161 ft | 296 kts | 70° |
| 2026-04-26 13:07 | 49.95785 | 19.55860 | 10910 ft | 295 kts | 69° |
| 2026-04-26 13:07 | 49.96201 | 19.58971 | 10672 ft | 294 kts | 69° |
| 2026-04-26 13:07 | 49.96618 | 19.62064 | 10420 ft | 292 kts | 70° |
| 2026-04-26 13:07 | 49.97033 | 19.65131 | 10167 ft | 289 kts | 70° |
| 2026-04-26 13:08 | 49.97445 | 19.68179 | 9878 ft | 287 kts | 70° |
| 2026-04-26 13:08 | 49.97854 | 19.71206 | 9603 ft | 286 kts | 70° |
| 2026-04-26 13:08 | 49.98261 | 19.74224 | 9326 ft | 285 kts | 71° |
| 2026-04-26 13:08 | 49.98669 | 19.77232 | 9043 ft | 284 kts | 71° |
| 2026-04-26 13:09 | 49.99075 | 19.80227 | 8764 ft | 282 kts | 71° |
| 2026-04-26 13:09 | 49.99479 | 19.83209 | 8489 ft | 282 kts | 71° |
| 2026-04-26 13:09 | 49.99880 | 19.86183 | 8218 ft | 281 kts | 72° |
| 2026-04-26 13:09 | 50.00282 | 19.89148 | 7943 ft | 280 kts | 72° |
| 2026-04-26 13:10 | 50.00682 | 19.92104 | 7677 ft | 279 kts | 72° |
| 2026-04-26 13:10 | 50.01079 | 19.95043 | 7404 ft | 277 kts | 72° |
| 2026-04-26 13:10 | 50.01472 | 19.97965 | 7136 ft | 275 kts | 73° |
| 2026-04-26 13:10 | 50.01864 | 20.00856 | 6882 ft | 272 kts | 73° |
| 2026-04-26 13:11 | 50.02253 | 20.03724 | 6606 ft | 268 kts | 73° |
| 2026-04-26 13:11 | 50.02628 | 20.06510 | 6306 ft | 259 kts | 73° |
| 2026-04-26 13:11 | 50.02991 | 20.09207 | 6027 ft | 251 kts | 73° |
| 2026-04-26 13:11 | 50.03347 | 20.11849 | 5751 ft | 250 kts | 73° |
| 2026-04-26 13:12 | 50.03706 | 20.14490 | 5477 ft | 250 kts | 73° |
| 2026-04-26 13:12 | 50.04062 | 20.17128 | 5217 ft | 248 kts | 72° |
| 2026-04-26 13:12 | 50.04434 | 20.19729 | 5028 ft | 241 kts | 66° |
| 2026-04-26 13:12 | 50.05267 | 20.21847 | 5007 ft | 225 kts | 35° |
| 2026-04-26 13:13 | 50.06580 | 20.22958 | 5006 ft | 215 kts | 8° |
| 2026-04-26 13:13 | 50.08045 | 20.23102 | 5018 ft | 210 kts | 351° |
| 2026-04-26 13:13 | 50.09496 | 20.22826 | 5013 ft | 210 kts | 349° |
| 2026-04-26 13:13 | 50.10944 | 20.22477 | 4991 ft | 210 kts | 345° |
| 2026-04-26 13:14 | 50.12234 | 20.21524 | 4780 ft | 206 kts | 317° |
| 2026-04-26 13:14 | 50.12980 | 20.19642 | 4551 ft | 207 kts | 289° |
| 2026-04-26 13:14 | 50.13038 | 20.17393 | 4305 ft | 211 kts | 267° |
| 2026-04-26 13:14 | 50.12769 | 20.15165 | 4151 ft | 206 kts | 265° |
| 2026-04-26 13:15 | 50.12494 | 20.13001 | 4000 ft | 200 kts | 265° |
| 2026-04-26 13:15 | 50.12225 | 20.10943 | 3954 ft | 187 kts | 265° |
| 2026-04-26 13:15 | 50.11965 | 20.08974 | 3952 ft | 185 kts | 265° |
| 2026-04-26 13:15 | 50.11792 | 20.07671 | 3851 ft | 185 kts | 265° |
| 2026-04-26 13:16 | 50.11450 | 20.05110 | 3579 ft | 176 kts | 265° |
| 2026-04-26 13:16 | 50.11203 | 20.03261 | 3336 ft | 173 kts | 265° |
| 2026-04-26 13:16 | 50.10956 | 20.01465 | 3117 ft | 165 kts | 266° |
| 2026-04-26 13:16 | 50.10719 | 19.99744 | 3010 ft | 161 kts | 265° |
| 2026-04-26 13:17 | 50.10249 | 19.96341 | 2879 ft | 161 kts | 266° |
| 2026-04-26 13:17 | 50.10015 | 19.94647 | 2689 ft | 159 kts | 265° |
| 2026-04-26 13:18 | 50.09584 | 19.91558 | 2320 ft | 139 kts | 266° |
| 2026-04-26 13:18 | 50.09382 | 19.90086 | 2175 ft | 140 kts | 265° |
| 2026-04-26 13:18 | 50.08971 | 19.87164 | 1766 ft | 136 kts | 265° |
| 2026-04-26 13:19 | 50.08771 | 19.85709 | 1543 ft | 141 kts | 261° |
| 2026-04-26 13:19 | 50.08563 | 19.84189 | 1376 ft | 146 kts | 262° |
| 2026-04-26 13:19 | 50.08349 | 19.82678 | 1158 ft | 141 kts | 263° |
| 2026-04-26 13:19 | 50.08145 | 19.81202 | 989 ft | 141 kts | 266° |
| 2026-04-26 13:20 | 50.07941 | 19.79776 | 831 ft | 128 kts | 269° |
| 2026-04-26 13:20 | 50.07788 | 19.78573 | 803 ft | 86 kts | 257° |
| 2026-04-26 13:20 | 50.07700 | 19.77953 | 800 ft | 45 kts | 258° |
| 2026-04-26 13:20 | 50.07632 | 19.77465 | 802 ft | 45 kts | 258° |
| 2026-04-26 13:21 | 50.07580 | 19.77089 | 805 ft | 31 kts | 258° |
| 2026-04-26 13:21 | 50.07553 | 19.76897 | 805 ft | 14 kts | 255° |
| 2026-04-26 13:21 | 50.07467 | 19.76849 | 803 ft | 13 kts | 167° |
| 2026-04-26 13:21 | 50.07365 | 19.76883 | 802 ft | 16 kts | 168° |
| 2026-04-26 13:22 | 50.07307 | 19.76929 | 802 ft | 7 kts | 98° |
| 2026-04-26 13:22 | 50.07317 | 19.77028 | 802 ft | 14 kts | 78° |
| 2026-04-26 13:22 | 50.07342 | 19.77206 | 802 ft | 19 kts | 77° |
| 2026-04-26 13:22 | 50.07371 | 19.77414 | 802 ft | 21 kts | 78° |
| 2026-04-26 13:23 | 50.07403 | 19.77646 | 802 ft | 23 kts | 77° |
| 2026-04-26 13:23 | 50.07438 | 19.77899 | 802 ft | 25 kts | 77° |
| 2026-04-26 13:23 | 50.07477 | 19.78174 | 802 ft | 27 kts | 77° |
| 2026-04-26 13:23 | 50.07518 | 19.78468 | 802 ft | 29 kts | 78° |
| 2026-04-26 13:24 | 50.07562 | 19.78781 | 802 ft | 30 kts | 77° |
| 2026-04-26 13:24 | 50.07606 | 19.79101 | 802 ft | 30 kts | 78° |
| 2026-04-26 13:24 | 50.07651 | 19.79425 | 802 ft | 31 kts | 78° |
| 2026-04-26 13:24 | 50.07680 | 19.79641 | 802 ft | 13 kts | 84° |
| 2026-04-26 13:25 | 50.07622 | 19.79708 | 802 ft | 9 kts | 166° |
| 2026-04-26 13:25 | 50.07589 | 19.79740 | 802 ft | 5 kts | 108° |
| 2026-04-26 13:25 | 50.07594 | 19.79810 | 802 ft | 8 kts | 78° |
| 2026-04-26 13:25 | 50.07592 | 19.79896 | 802 ft | 8 kts | 137° |
| 2026-04-26 13:26 | 50.07534 | 19.79925 | 802 ft | 9 kts | 165° |
| 2026-04-26 13:26 | 50.07513 | 19.79998 | 802 ft | 9 kts | 82° |
| 2026-04-26 13:26 | 50.07527 | 19.80102 | 802 ft | 11 kts | 78° |
| 2026-04-26 13:26 | 50.07545 | 19.80232 | 802 ft | 14 kts | 78° |
| 2026-04-26 13:27 | 50.07561 | 19.80352 | 802 ft | 7 kts | 88° |
| 2026-04-26 13:27 | 50.07526 | 19.80400 | 802 ft | 7 kts | 181° |
| 2026-04-26 13:27 | 50.07481 | 19.80389 | 802 ft | 5 kts | 167° |
| 2026-04-26 13:27 | 50.07463 | 19.80424 | 802 ft | 5 kts | 110° |
| 2026-04-26 13:28 | 50.07457 | 19.80453 | 802 ft | 3 kts | 108° |
| 2026-04-26 13:28 | 50.07453 | 19.80470 | 802 ft | 0 kts | 108° |